sensor_id;sensor_type;location;lat;lon;timestamp;temperature;humidity
60909;DHT22;46780;48.128;-1.704;2022-09-03T00:02:32;21.40;88.80
60909;DHT22;46780;48.128;-1.704;2022-09-03T00:05:05;21.40;89.10
60909;DHT22;46780;48.128;-1.704;2022-09-03T00:07:38;21.40;89.20
60909;DHT22;46780;48.128;-1.704;2022-09-03T00:10:10;21.40;89.30
60909;DHT22;46780;48.128;-1.704;2022-09-03T00:12:40;21.40;89.50
60909;DHT22;46780;48.128;-1.704;2022-09-03T00:15:08;21.40;89.70
60909;DHT22;46780;48.128;-1.704;2022-09-03T00:17:38;21.40;89.10
60909;DHT22;46780;48.128;-1.704;2022-09-03T00:20:11;21.40;89.70
60909;DHT22;46780;48.128;-1.704;2022-09-03T00:22:43;21.40;89.80
60909;DHT22;46780;48.128;-1.704;2022-09-03T00:25:16;21.30;89.90
60909;DHT22;46780;48.128;-1.704;2022-09-03T00:27:45;21.30;89.90
60909;DHT22;46780;48.128;-1.704;2022-09-03T00:30:15;21.30;90.00
60909;DHT22;46780;48.128;-1.704;2022-09-03T00:32:45;21.40;90.10
60909;DHT22;46780;48.128;-1.704;2022-09-03T00:35:19;21.40;90.10
60909;DHT22;46780;48.128;-1.704;2022-09-03T00:37:47;21.40;90.10
60909;DHT22;46780;48.128;-1.704;2022-09-03T00:40:28;21.40;90.20
60909;DHT22;46780;48.128;-1.704;2022-09-03T00:43:01;21.40;90.20
60909;DHT22;46780;48.128;-1.704;2022-09-03T00:45:33;21.40;90.40
60909;DHT22;46780;48.128;-1.704;2022-09-03T00:48:13;21.30;90.30
60909;DHT22;46780;48.128;-1.704;2022-09-03T00:51:02;21.30;90.30
60909;DHT22;46780;48.128;-1.704;2022-09-03T00:53:39;21.30;90.30
60909;DHT22;46780;48.128;-1.704;2022-09-03T00:56:16;21.30;90.50
60909;DHT22;46780;48.128;-1.704;2022-09-03T00:59:04;21.30;90.50
60909;DHT22;46780;48.128;-1.704;2022-09-03T01:01:38;21.30;90.60
60909;DHT22;46780;48.128;-1.704;2022-09-03T01:04:21;21.30;90.70
60909;DHT22;46780;48.128;-1.704;2022-09-03T01:06:58;21.30;90.70
60909;DHT22;46780;48.128;-1.704;2022-09-03T01:09:40;21.30;90.70
60909;DHT22;46780;48.128;-1.704;2022-09-03T01:12:17;21.30;90.80
60909;DHT22;46780;48.128;-1.704;2022-09-03T01:14:55;21.30;90.80
60909;DHT22;46780;48.128;-1.704;2022-09-03T01:17:35;21.30;90.80
60909;DHT22;46780;48.128;-1.704;2022-09-03T01:26:09;21.30;90.80
60909;DHT22;46780;48.128;-1.704;2022-09-03T01:28:51;21.30;90.90
60909;DHT22;46780;48.128;-1.704;2022-09-03T01:31:26;21.30;90.80
60909;DHT22;46780;48.128;-1.704;2022-09-03T01:34:04;21.30;90.90
60909;DHT22;46780;48.128;-1.704;2022-09-03T01:36:43;21.30;90.90
60909;DHT22;46780;48.128;-1.704;2022-09-03T01:39:19;21.30;90.90
60909;DHT22;46780;48.128;-1.704;2022-09-03T01:41:54;21.30;90.80
60909;DHT22;46780;48.128;-1.704;2022-09-03T01:44:31;21.30;90.80
60909;DHT22;46780;48.128;-1.704;2022-09-03T01:47:04;21.30;90.80
60909;DHT22;46780;48.128;-1.704;2022-09-03T01:49:39;21.30;90.90
60909;DHT22;46780;48.128;-1.704;2022-09-03T01:52:28;21.30;90.90
60909;DHT22;46780;48.128;-1.704;2022-09-03T01:55:06;21.20;91.30
60909;DHT22;46780;48.128;-1.704;2022-09-03T01:57:42;21.20;91.00
60909;DHT22;46780;48.128;-1.704;2022-09-03T02:00:14;21.20;91.00
60909;DHT22;46780;48.128;-1.704;2022-09-03T02:02:42;21.20;91.00
60909;DHT22;46780;48.128;-1.704;2022-09-03T02:05:11;21.20;91.00
60909;DHT22;46780;48.128;-1.704;2022-09-03T02:07:40;21.20;91.10
60909;DHT22;46780;48.128;-1.704;2022-09-03T02:10:10;21.20;91.10
60909;DHT22;46780;48.128;-1.704;2022-09-03T02:12:38;21.20;91.20
60909;DHT22;46780;48.128;-1.704;2022-09-03T02:15:09;21.20;91.20
60909;DHT22;46780;48.128;-1.704;2022-09-03T02:17:39;21.20;91.30
60909;DHT22;46780;48.128;-1.704;2022-09-03T02:20:09;21.20;91.30
60909;DHT22;46780;48.128;-1.704;2022-09-03T02:22:37;21.20;91.30
60909;DHT22;46780;48.128;-1.704;2022-09-03T02:25:05;21.20;91.20
60909;DHT22;46780;48.128;-1.704;2022-09-03T02:27:32;21.20;91.20
60909;DHT22;46780;48.128;-1.704;2022-09-03T02:29:59;21.20;91.30
60909;DHT22;46780;48.128;-1.704;2022-09-03T02:32:26;21.20;91.20
60909;DHT22;46780;48.128;-1.704;2022-09-03T02:34:54;21.20;91.20
60909;DHT22;46780;48.128;-1.704;2022-09-03T02:37:21;21.10;91.20
60909;DHT22;46780;48.128;-1.704;2022-09-03T02:39:48;21.10;91.20
60909;DHT22;46780;48.128;-1.704;2022-09-03T02:42:15;21.10;91.20
60909;DHT22;46780;48.128;-1.704;2022-09-03T02:44:45;21.10;91.20
60909;DHT22;46780;48.128;-1.704;2022-09-03T02:47:13;21.10;91.20
60909;DHT22;46780;48.128;-1.704;2022-09-03T02:49:40;21.10;91.20
60909;DHT22;46780;48.128;-1.704;2022-09-03T02:52:09;21.10;91.10
60909;DHT22;46780;48.128;-1.704;2022-09-03T02:54:36;21.10;91.20
60909;DHT22;46780;48.128;-1.704;2022-09-03T02:57:03;21.10;91.20
60909;DHT22;46780;48.128;-1.704;2022-09-03T02:59:29;21.10;91.30
60909;DHT22;46780;48.128;-1.704;2022-09-03T03:01:56;21.10;91.40
60909;DHT22;46780;48.128;-1.704;2022-09-03T03:04:22;21.10;91.40
60909;DHT22;46780;48.128;-1.704;2022-09-03T03:06:49;21.10;91.50
60909;DHT22;46780;48.128;-1.704;2022-09-03T03:09:17;21.10;91.50
60909;DHT22;46780;48.128;-1.704;2022-09-03T03:11:44;21.10;91.60
60909;DHT22;46780;48.128;-1.704;2022-09-03T03:14:10;21.10;91.70
60909;DHT22;46780;48.128;-1.704;2022-09-03T03:16:37;21.00;91.70
60909;DHT22;46780;48.128;-1.704;2022-09-03T03:19:03;21.10;91.80
60909;DHT22;46780;48.128;-1.704;2022-09-03T03:21:30;21.00;91.80
60909;DHT22;46780;48.128;-1.704;2022-09-03T03:23:57;21.00;91.80
60909;DHT22;46780;48.128;-1.704;2022-09-03T03:26:24;21.00;91.80
60909;DHT22;46780;48.128;-1.704;2022-09-03T03:28:55;21.00;91.80
60909;DHT22;46780;48.128;-1.704;2022-09-03T03:31:23;21.00;91.70
60909;DHT22;46780;48.128;-1.704;2022-09-03T03:33:50;21.00;91.60
60909;DHT22;46780;48.128;-1.704;2022-09-03T03:36:17;21.00;91.40
60909;DHT22;46780;48.128;-1.704;2022-09-03T03:38:44;21.00;91.30
60909;DHT22;46780;48.128;-1.704;2022-09-03T03:41:13;21.00;91.20
60909;DHT22;46780;48.128;-1.704;2022-09-03T03:43:41;21.00;91.10
60909;DHT22;46780;48.128;-1.704;2022-09-03T03:46:08;21.00;91.10
60909;DHT22;46780;48.128;-1.704;2022-09-03T03:48:34;21.00;91.10
60909;DHT22;46780;48.128;-1.704;2022-09-03T03:51:02;21.00;91.10
60909;DHT22;46780;48.128;-1.704;2022-09-03T03:53:29;21.00;91.10
60909;DHT22;46780;48.128;-1.704;2022-09-03T03:55:56;21.00;91.20
60909;DHT22;46780;48.128;-1.704;2022-09-03T03:58:23;21.00;91.10
60909;DHT22;46780;48.128;-1.704;2022-09-03T04:00:51;21.00;91.10
60909;DHT22;46780;48.128;-1.704;2022-09-03T04:03:18;21.00;91.20
60909;DHT22;46780;48.128;-1.704;2022-09-03T04:05:54;20.90;91.20
60909;DHT22;46780;48.128;-1.704;2022-09-03T04:08:20;20.90;91.20
60909;DHT22;46780;48.128;-1.704;2022-09-03T04:10:48;20.90;91.30
60909;DHT22;46780;48.128;-1.704;2022-09-03T04:13:14;20.80;91.50
60909;DHT22;46780;48.128;-1.704;2022-09-03T04:15:41;20.80;91.90
60909;DHT22;46780;48.128;-1.704;2022-09-03T04:18:09;20.70;92.30
60909;DHT22;46780;48.128;-1.704;2022-09-03T04:20:36;20.60;92.60
60909;DHT22;46780;48.128;-1.704;2022-09-03T04:23:05;20.60;92.70
60909;DHT22;46780;48.128;-1.704;2022-09-03T04:25:31;20.60;92.80
60909;DHT22;46780;48.128;-1.704;2022-09-03T04:27:58;20.60;92.90
60909;DHT22;46780;48.128;-1.704;2022-09-03T04:30:24;20.60;93.00
60909;DHT22;46780;48.128;-1.704;2022-09-03T04:32:51;20.50;92.90
60909;DHT22;46780;48.128;-1.704;2022-09-03T04:35:19;20.50;92.90
60909;DHT22;46780;48.128;-1.704;2022-09-03T04:37:45;20.50;93.00
60909;DHT22;46780;48.128;-1.704;2022-09-03T04:40:12;20.50;93.00
60909;DHT22;46780;48.128;-1.704;2022-09-03T04:42:39;20.50;93.10
60909;DHT22;46780;48.128;-1.704;2022-09-03T04:45:06;20.50;93.20
60909;DHT22;46780;48.128;-1.704;2022-09-03T04:47:33;20.50;93.10
60909;DHT22;46780;48.128;-1.704;2022-09-03T04:49:59;20.50;93.10
60909;DHT22;46780;48.128;-1.704;2022-09-03T04:52:28;20.50;93.10
60909;DHT22;46780;48.128;-1.704;2022-09-03T04:54:54;20.50;93.10
60909;DHT22;46780;48.128;-1.704;2022-09-03T04:57:21;20.50;93.20
60909;DHT22;46780;48.128;-1.704;2022-09-03T04:59:47;20.40;93.20
60909;DHT22;46780;48.128;-1.704;2022-09-03T05:02:14;20.40;93.20
60909;DHT22;46780;48.128;-1.704;2022-09-03T05:04:40;20.40;93.30
60909;DHT22;46780;48.128;-1.704;2022-09-03T05:07:07;20.40;93.40
60909;DHT22;46780;48.128;-1.704;2022-09-03T05:09:35;20.40;93.40
60909;DHT22;46780;48.128;-1.704;2022-09-03T05:12:02;20.40;93.50
60909;DHT22;46780;48.128;-1.704;2022-09-03T05:14:29;20.40;93.60
60909;DHT22;46780;48.128;-1.704;2022-09-03T05:16:55;20.40;93.60
60909;DHT22;46780;48.128;-1.704;2022-09-03T05:19:22;20.40;93.50
60909;DHT22;46780;48.128;-1.704;2022-09-03T05:21:49;20.40;93.50
60909;DHT22;46780;48.128;-1.704;2022-09-03T05:24:15;20.40;93.50
60909;DHT22;46780;48.128;-1.704;2022-09-03T05:26:43;20.40;93.40
60909;DHT22;46780;48.128;-1.704;2022-09-03T05:29:10;20.40;93.30
60909;DHT22;46780;48.128;-1.704;2022-09-03T05:31:37;20.30;93.30
60909;DHT22;46780;48.128;-1.704;2022-09-03T05:34:05;20.30;93.40
60909;DHT22;46780;48.128;-1.704;2022-09-03T05:36:34;20.30;93.60
60909;DHT22;46780;48.128;-1.704;2022-09-03T05:39:01;20.30;93.70
60909;DHT22;46780;48.128;-1.704;2022-09-03T05:41:28;20.30;93.70
60909;DHT22;46780;48.128;-1.704;2022-09-03T05:43:56;20.30;93.80
60909;DHT22;46780;48.128;-1.704;2022-09-03T05:46:24;20.30;93.80
60909;DHT22;46780;48.128;-1.704;2022-09-03T05:49:15;20.20;93.80
60909;DHT22;46780;48.128;-1.704;2022-09-03T05:51:55;20.20;93.60
60909;DHT22;46780;48.128;-1.704;2022-09-03T05:54:22;20.20;93.70
60909;DHT22;46780;48.128;-1.704;2022-09-03T05:56:48;20.10;93.80
60909;DHT22;46780;48.128;-1.704;2022-09-03T05:59:16;20.10;93.90
60909;DHT22;46780;48.128;-1.704;2022-09-03T06:01:44;20.10;94.00
60909;DHT22;46780;48.128;-1.704;2022-09-03T06:04:12;20.10;94.20
60909;DHT22;46780;48.128;-1.704;2022-09-03T06:06:41;20.10;94.40
60909;DHT22;46780;48.128;-1.704;2022-09-03T06:09:09;20.10;94.40
60909;DHT22;46780;48.128;-1.704;2022-09-03T06:11:37;20.10;94.30
60909;DHT22;46780;48.128;-1.704;2022-09-03T06:14:05;20.10;94.20
60909;DHT22;46780;48.128;-1.704;2022-09-03T06:16:36;20.00;94.20
60909;DHT22;46780;48.128;-1.704;2022-09-03T06:19:03;20.00;94.00
60909;DHT22;46780;48.128;-1.704;2022-09-03T06:21:30;19.90;93.70
60909;DHT22;46780;48.128;-1.704;2022-09-03T06:23:57;19.80;93.80
60909;DHT22;46780;48.128;-1.704;2022-09-03T06:26:24;19.70;94.10
60909;DHT22;46780;48.128;-1.704;2022-09-03T06:28:51;19.70;94.40
60909;DHT22;46780;48.128;-1.704;2022-09-03T06:31:18;19.70;94.50
60909;DHT22;46780;48.128;-1.704;2022-09-03T06:33:47;19.70;94.30
60909;DHT22;46780;48.128;-1.704;2022-09-03T06:36:15;19.70;94.30
60909;DHT22;46780;48.128;-1.704;2022-09-03T06:38:43;19.70;94.10
60909;DHT22;46780;48.128;-1.704;2022-09-03T06:41:13;19.70;94.10
60909;DHT22;46780;48.128;-1.704;2022-09-03T06:43:41;19.80;94.00
60909;DHT22;46780;48.128;-1.704;2022-09-03T06:46:09;19.80;94.10
60909;DHT22;46780;48.128;-1.704;2022-09-03T06:48:37;19.80;94.20
60909;DHT22;46780;48.128;-1.704;2022-09-03T06:51:07;19.80;94.20
60909;DHT22;46780;48.128;-1.704;2022-09-03T06:53:35;19.80;94.00
60909;DHT22;46780;48.128;-1.704;2022-09-03T06:56:03;19.90;94.10
60909;DHT22;46780;48.128;-1.704;2022-09-03T06:58:31;19.90;94.00
60909;DHT22;46780;48.128;-1.704;2022-09-03T07:01:01;19.90;93.90
60909;DHT22;46780;48.128;-1.704;2022-09-03T07:03:28;19.90;94.00
60909;DHT22;46780;48.128;-1.704;2022-09-03T07:05:59;19.90;93.90
60909;DHT22;46780;48.128;-1.704;2022-09-03T07:08:28;19.90;94.00
60909;DHT22;46780;48.128;-1.704;2022-09-03T07:10:54;19.90;93.90
60909;DHT22;46780;48.128;-1.704;2022-09-03T07:13:21;19.90;94.10
60909;DHT22;46780;48.128;-1.704;2022-09-03T07:15:47;20.00;94.10
60909;DHT22;46780;48.128;-1.704;2022-09-03T07:18:14;20.00;93.90
60909;DHT22;46780;48.128;-1.704;2022-09-03T07:20:40;20.10;94.10
60909;DHT22;46780;48.128;-1.704;2022-09-03T07:23:07;20.20;94.10
60909;DHT22;46780;48.128;-1.704;2022-09-03T07:25:35;20.30;94.00
60909;DHT22;46780;48.128;-1.704;2022-09-03T07:28:04;20.30;93.70
60909;DHT22;46780;48.128;-1.704;2022-09-03T07:30:30;20.30;93.50
60909;DHT22;46780;48.128;-1.704;2022-09-03T07:32:57;20.30;93.00
60909;DHT22;46780;48.128;-1.704;2022-09-03T07:35:23;20.30;92.60
60909;DHT22;46780;48.128;-1.704;2022-09-03T07:37:50;20.30;92.40
60909;DHT22;46780;48.128;-1.704;2022-09-03T07:40:17;20.30;92.40
60909;DHT22;46780;48.128;-1.704;2022-09-03T07:42:44;20.20;92.30
60909;DHT22;46780;48.128;-1.704;2022-09-03T07:45:11;20.20;92.30
60909;DHT22;46780;48.128;-1.704;2022-09-03T07:47:45;20.20;92.20
60909;DHT22;46780;48.128;-1.704;2022-09-03T07:50:11;20.20;92.40
60909;DHT22;46780;48.128;-1.704;2022-09-03T07:52:38;20.20;92.40
60909;DHT22;46780;48.128;-1.704;2022-09-03T07:55:06;20.20;92.10
60909;DHT22;46780;48.128;-1.704;2022-09-03T07:57:33;20.20;91.90
60909;DHT22;46780;48.128;-1.704;2022-09-03T08:00:01;20.20;92.10
60909;DHT22;46780;48.128;-1.704;2022-09-03T08:02:27;20.10;91.60
60909;DHT22;46780;48.128;-1.704;2022-09-03T08:04:54;20.10;91.60
60909;DHT22;46780;48.128;-1.704;2022-09-03T08:07:20;20.10;91.50
60909;DHT22;46780;48.128;-1.704;2022-09-03T08:09:47;20.00;91.30
60909;DHT22;46780;48.128;-1.704;2022-09-03T08:12:14;20.00;91.50
60909;DHT22;46780;48.128;-1.704;2022-09-03T08:14:40;20.00;91.70
60909;DHT22;46780;48.128;-1.704;2022-09-03T08:17:08;20.00;91.50
60909;DHT22;46780;48.128;-1.704;2022-09-03T08:19:34;20.00;91.70
60909;DHT22;46780;48.128;-1.704;2022-09-03T08:22:01;20.20;92.10
60909;DHT22;46780;48.128;-1.704;2022-09-03T08:24:27;20.30;91.60
60909;DHT22;46780;48.128;-1.704;2022-09-03T08:26:56;20.40;90.90
60909;DHT22;46780;48.128;-1.704;2022-09-03T08:29:23;20.50;90.30
60909;DHT22;46780;48.128;-1.704;2022-09-03T08:31:49;20.50;90.00
60909;DHT22;46780;48.128;-1.704;2022-09-03T08:34:17;20.50;89.50
60909;DHT22;46780;48.128;-1.704;2022-09-03T08:36:44;20.50;89.30
60909;DHT22;46780;48.128;-1.704;2022-09-03T08:39:11;20.60;89.50
60909;DHT22;46780;48.128;-1.704;2022-09-03T08:42:09;20.60;89.40
60909;DHT22;46780;48.128;-1.704;2022-09-03T08:44:41;20.90;90.10
60909;DHT22;46780;48.128;-1.704;2022-09-03T08:47:12;21.10;89.40
60909;DHT22;46780;48.128;-1.704;2022-09-03T08:49:44;21.20;87.70
60909;DHT22;46780;48.128;-1.704;2022-09-03T08:52:21;21.30;86.70
60909;DHT22;46780;48.128;-1.704;2022-09-03T08:54:50;21.20;85.90
60909;DHT22;46780;48.128;-1.704;2022-09-03T08:57:18;21.20;85.90
60909;DHT22;46780;48.128;-1.704;2022-09-03T08:59:47;21.20;85.70
60909;DHT22;46780;48.128;-1.704;2022-09-03T09:02:24;21.20;85.40
60909;DHT22;46780;48.128;-1.704;2022-09-03T09:04:58;21.20;84.30
60909;DHT22;46780;48.128;-1.704;2022-09-03T09:07:33;21.20;85.40
60909;DHT22;46780;48.128;-1.704;2022-09-03T09:10:08;21.40;83.80
60909;DHT22;46780;48.128;-1.704;2022-09-03T09:12:40;21.60;84.70
60909;DHT22;46780;48.128;-1.704;2022-09-03T09:15:13;21.90;83.80
60909;DHT22;46780;48.128;-1.704;2022-09-03T09:17:50;22.30;82.00
60909;DHT22;46780;48.128;-1.704;2022-09-03T09:20:28;22.70;80.60
60909;DHT22;46780;48.128;-1.704;2022-09-03T09:23:02;23.00;79.00
60909;DHT22;46780;48.128;-1.704;2022-09-03T09:25:29;23.30;77.20
60909;DHT22;46780;48.128;-1.704;2022-09-03T09:27:58;23.30;75.70
60909;DHT22;46780;48.128;-1.704;2022-09-03T09:30:26;23.30;74.60
60909;DHT22;46780;48.128;-1.704;2022-09-03T09:32:53;23.30;75.30
60909;DHT22;46780;48.128;-1.704;2022-09-03T09:35:19;23.50;74.90
60909;DHT22;46780;48.128;-1.704;2022-09-03T09:37:49;23.70;74.10
60909;DHT22;46780;48.128;-1.704;2022-09-03T09:40:25;24.00;73.00
60909;DHT22;46780;48.128;-1.704;2022-09-03T09:43:05;24.20;71.70
60909;DHT22;46780;48.128;-1.704;2022-09-03T09:45:32;24.30;72.20
60909;DHT22;46780;48.128;-1.704;2022-09-03T09:47:59;24.40;71.20
60909;DHT22;46780;48.128;-1.704;2022-09-03T09:50:27;24.60;69.90
60909;DHT22;46780;48.128;-1.704;2022-09-03T09:53:02;24.60;69.40
60909;DHT22;46780;48.128;-1.704;2022-09-03T09:55:30;24.70;68.30
60909;DHT22;46780;48.128;-1.704;2022-09-03T09:58:04;24.60;68.40
60909;DHT22;46780;48.128;-1.704;2022-09-03T10:00:31;24.70;68.40
60909;DHT22;46780;48.128;-1.704;2022-09-03T10:02:57;24.80;68.10
60909;DHT22;46780;48.128;-1.704;2022-09-03T10:05:25;24.90;67.50
60909;DHT22;46780;48.128;-1.704;2022-09-03T10:07:57;25.00;65.90
60909;DHT22;46780;48.128;-1.704;2022-09-03T10:10:25;24.90;65.60
60909;DHT22;46780;48.128;-1.704;2022-09-03T10:12:55;24.70;65.30
60909;DHT22;46780;48.128;-1.704;2022-09-03T10:15:24;24.30;65.50
60909;DHT22;46780;48.128;-1.704;2022-09-03T10:17:59;23.90;66.90
60909;DHT22;46780;48.128;-1.704;2022-09-03T10:20:33;23.80;68.70
60909;DHT22;46780;48.128;-1.704;2022-09-03T10:23:10;23.80;69.20
60909;DHT22;46780;48.128;-1.704;2022-09-03T10:25:51;23.70;69.20
60909;DHT22;46780;48.128;-1.704;2022-09-03T10:28:21;23.70;68.20
60909;DHT22;46780;48.128;-1.704;2022-09-03T10:31:05;23.70;68.80
60909;DHT22;46780;48.128;-1.704;2022-09-03T10:33:39;23.60;68.30
60909;DHT22;46780;48.128;-1.704;2022-09-03T10:36:13;23.60;68.30
60909;DHT22;46780;48.128;-1.704;2022-09-03T10:38:47;23.50;67.70
60909;DHT22;46780;48.128;-1.704;2022-09-03T10:41:26;23.30;66.90
60909;DHT22;46780;48.128;-1.704;2022-09-03T10:44:19;23.10;67.00
60909;DHT22;46780;48.128;-1.704;2022-09-03T10:46:55;22.90;68.20
60909;DHT22;46780;48.128;-1.704;2022-09-03T10:49:31;22.80;68.90
60909;DHT22;46780;48.128;-1.704;2022-09-03T10:52:04;22.90;68.90
60909;DHT22;46780;48.128;-1.704;2022-09-03T10:54:52;23.20;68.50
60909;DHT22;46780;48.128;-1.704;2022-09-03T10:57:31;23.60;67.00
60909;DHT22;46780;48.128;-1.704;2022-09-03T11:00:03;23.90;64.70
60909;DHT22;46780;48.128;-1.704;2022-09-03T11:02:55;24.30;63.00
60909;DHT22;46780;48.128;-1.704;2022-09-03T11:05:29;24.70;62.00
60909;DHT22;46780;48.128;-1.704;2022-09-03T11:08:00;24.80;60.60
60909;DHT22;46780;48.128;-1.704;2022-09-03T11:10:30;24.80;59.10
60909;DHT22;46780;48.128;-1.704;2022-09-03T11:13:03;24.70;59.20
60909;DHT22;46780;48.128;-1.704;2022-09-03T11:15:34;24.60;58.20
60909;DHT22;46780;48.128;-1.704;2022-09-03T11:18:11;24.40;58.30
60909;DHT22;46780;48.128;-1.704;2022-09-03T11:20:41;24.30;59.40
60909;DHT22;46780;48.128;-1.704;2022-09-03T11:23:10;24.30;59.50
60909;DHT22;46780;48.128;-1.704;2022-09-03T11:25:41;24.50;57.90
60909;DHT22;46780;48.128;-1.704;2022-09-03T11:28:25;24.70;58.40
60909;DHT22;46780;48.128;-1.704;2022-09-03T11:31:05;25.20;58.10
60909;DHT22;46780;48.128;-1.704;2022-09-03T11:33:34;25.80;57.30
60909;DHT22;46780;48.128;-1.704;2022-09-03T11:36:06;26.10;55.70
60909;DHT22;46780;48.128;-1.704;2022-09-03T11:38:33;26.40;53.30
60909;DHT22;46780;48.128;-1.704;2022-09-03T11:41:02;26.80;51.60
60909;DHT22;46780;48.128;-1.704;2022-09-03T11:43:31;27.00;49.10
60909;DHT22;46780;48.128;-1.704;2022-09-03T11:46:04;27.10;48.20
60909;DHT22;46780;48.128;-1.704;2022-09-03T11:48:37;27.10;48.70
60909;DHT22;46780;48.128;-1.704;2022-09-03T11:51:18;27.10;49.50
60909;DHT22;46780;48.128;-1.704;2022-09-03T11:53:53;26.80;49.80
60909;DHT22;46780;48.128;-1.704;2022-09-03T11:56:20;26.50;51.00
60909;DHT22;46780;48.128;-1.704;2022-09-03T11:58:59;26.40;51.60
60909;DHT22;46780;48.128;-1.704;2022-09-03T12:01:27;26.40;51.40
60909;DHT22;46780;48.128;-1.704;2022-09-03T12:03:57;26.10;50.60
60909;DHT22;46780;48.128;-1.704;2022-09-03T12:06:41;25.80;50.90
60909;DHT22;46780;48.128;-1.704;2022-09-03T12:09:27;25.70;52.10
60909;DHT22;46780;48.128;-1.704;2022-09-03T12:12:07;26.00;51.00
60909;DHT22;46780;48.128;-1.704;2022-09-03T12:14:48;26.30;49.50
60909;DHT22;46780;48.128;-1.704;2022-09-03T12:17:25;26.60;48.90
60909;DHT22;46780;48.128;-1.704;2022-09-03T12:19:54;27.00;48.30
60909;DHT22;46780;48.128;-1.704;2022-09-03T12:22:22;27.30;47.30
60909;DHT22;46780;48.128;-1.704;2022-09-03T12:24:50;27.50;46.60
60909;DHT22;46780;48.128;-1.704;2022-09-03T12:27:19;27.50;46.00
60909;DHT22;46780;48.128;-1.704;2022-09-03T12:29:54;27.10;45.60
60909;DHT22;46780;48.128;-1.704;2022-09-03T12:32:21;26.70;45.90
60909;DHT22;46780;48.128;-1.704;2022-09-03T12:34:48;26.30;46.50
60909;DHT22;46780;48.128;-1.704;2022-09-03T12:37:19;26.20;47.10
60909;DHT22;46780;48.128;-1.704;2022-09-03T12:39:50;26.40;47.00
60909;DHT22;46780;48.128;-1.704;2022-09-03T12:42:20;26.50;45.40
60909;DHT22;46780;48.128;-1.704;2022-09-03T12:44:48;26.00;45.30
60909;DHT22;46780;48.128;-1.704;2022-09-03T12:47:17;25.80;46.60
60909;DHT22;46780;48.128;-1.704;2022-09-03T12:49:46;25.60;46.80
60909;DHT22;46780;48.128;-1.704;2022-09-03T12:52:16;25.60;47.00
60909;DHT22;46780;48.128;-1.704;2022-09-03T12:54:49;25.60;46.30
60909;DHT22;46780;48.128;-1.704;2022-09-03T12:57:20;25.80;45.20
60909;DHT22;46780;48.128;-1.704;2022-09-03T12:59:48;25.90;44.90
60909;DHT22;46780;48.128;-1.704;2022-09-03T13:02:20;25.90;44.80
60909;DHT22;46780;48.128;-1.704;2022-09-03T13:04:48;26.20;44.90
60909;DHT22;46780;48.128;-1.704;2022-09-03T13:07:25;26.30;42.40
60909;DHT22;46780;48.128;-1.704;2022-09-03T13:09:59;26.30;40.50
60909;DHT22;46780;48.128;-1.704;2022-09-03T13:12:29;26.20;41.10
60909;DHT22;46780;48.128;-1.704;2022-09-03T13:14:57;26.10;41.30
60909;DHT22;46780;48.128;-1.704;2022-09-03T13:17:43;26.30;41.70
60909;DHT22;46780;48.128;-1.704;2022-09-03T13:20:26;26.50;41.40
60909;DHT22;46780;48.128;-1.704;2022-09-03T13:23:20;26.70;41.30
60909;DHT22;46780;48.128;-1.704;2022-09-03T13:25:58;26.80;40.20
60909;DHT22;46780;48.128;-1.704;2022-09-03T13:28:38;27.00;39.70
60909;DHT22;46780;48.128;-1.704;2022-09-03T13:31:18;27.20;39.80
60909;DHT22;46780;48.128;-1.704;2022-09-03T13:33:49;27.30;39.00
60909;DHT22;46780;48.128;-1.704;2022-09-03T13:36:19;27.20;37.90
60909;DHT22;46780;48.128;-1.704;2022-09-03T13:38:52;26.90;38.50
60909;DHT22;46780;48.128;-1.704;2022-09-03T13:41:31;26.70;39.00
60909;DHT22;46780;48.128;-1.704;2022-09-03T13:44:01;26.40;39.60
60909;DHT22;46780;48.128;-1.704;2022-09-03T13:46:32;26.10;40.60
60909;DHT22;46780;48.128;-1.704;2022-09-03T13:49:16;25.90;41.50
60909;DHT22;46780;48.128;-1.704;2022-09-03T13:51:50;25.90;41.70
60909;DHT22;46780;48.128;-1.704;2022-09-03T13:54:22;25.90;42.30
60909;DHT22;46780;48.128;-1.704;2022-09-03T13:56:54;25.90;42.40
60909;DHT22;46780;48.128;-1.704;2022-09-03T13:59:28;25.90;42.30
60909;DHT22;46780;48.128;-1.704;2022-09-03T14:02:13;25.80;42.70
60909;DHT22;46780;48.128;-1.704;2022-09-03T14:04:51;25.70;42.90
60909;DHT22;46780;48.128;-1.704;2022-09-03T14:07:23;25.60;43.20
60909;DHT22;46780;48.128;-1.704;2022-09-03T14:09:57;25.50;43.00
60909;DHT22;46780;48.128;-1.704;2022-09-03T14:12:34;25.40;42.50
60909;DHT22;46780;48.128;-1.704;2022-09-03T14:15:07;25.40;42.50
60909;DHT22;46780;48.128;-1.704;2022-09-03T14:17:40;25.30;41.80
60909;DHT22;46780;48.128;-1.704;2022-09-03T14:20:12;25.20;41.30
60909;DHT22;46780;48.128;-1.704;2022-09-03T14:22:49;25.10;41.90
60909;DHT22;46780;48.128;-1.704;2022-09-03T14:25:20;25.00;42.20
60909;DHT22;46780;48.128;-1.704;2022-09-03T14:27:48;24.70;43.10
60909;DHT22;46780;48.128;-1.704;2022-09-03T14:30:26;24.60;43.70
60909;DHT22;46780;48.128;-1.704;2022-09-03T14:32:55;24.60;43.90
60909;DHT22;46780;48.128;-1.704;2022-09-03T14:36:02;24.50;44.20
60909;DHT22;46780;48.128;-1.704;2022-09-03T14:38:56;24.40;44.00
60909;DHT22;46780;48.128;-1.704;2022-09-03T14:41:42;24.30;45.00
60909;DHT22;46780;48.128;-1.704;2022-09-03T14:44:40;24.30;45.60
60909;DHT22;46780;48.128;-1.704;2022-09-03T14:47:18;24.20;46.40
60909;DHT22;46780;48.128;-1.704;2022-09-03T14:49:59;24.10;46.40
60909;DHT22;46780;48.128;-1.704;2022-09-03T14:52:47;24.10;46.50
60909;DHT22;46780;48.128;-1.704;2022-09-03T14:55:31;24.10;46.50
60909;DHT22;46780;48.128;-1.704;2022-09-03T15:01:00;24.10;45.00
60909;DHT22;46780;48.128;-1.704;2022-09-03T15:03:54;24.00;44.90
60909;DHT22;46780;48.128;-1.704;2022-09-03T15:06:34;24.00;45.10
60909;DHT22;46780;48.128;-1.704;2022-09-03T15:09:21;24.00;45.70
60909;DHT22;46780;48.128;-1.704;2022-09-03T15:11:54;24.10;46.50
60909;DHT22;46780;48.128;-1.704;2022-09-03T15:14:26;24.00;45.50
60909;DHT22;46780;48.128;-1.704;2022-09-03T15:16:59;24.00;45.70
60909;DHT22;46780;48.128;-1.704;2022-09-03T15:19:47;24.00;44.20
60909;DHT22;46780;48.128;-1.704;2022-09-03T15:22:25;23.90;44.50
60909;DHT22;46780;48.128;-1.704;2022-09-03T15:25:05;23.80;44.70
60909;DHT22;46780;48.128;-1.704;2022-09-03T15:27:45;23.70;45.20
60909;DHT22;46780;48.128;-1.704;2022-09-03T15:30:17;23.60;45.10
60909;DHT22;46780;48.128;-1.704;2022-09-03T15:32:49;23.60;45.20
60909;DHT22;46780;48.128;-1.704;2022-09-03T15:38:32;23.50;45.70
60909;DHT22;46780;48.128;-1.704;2022-09-03T15:41:07;23.50;47.10
60909;DHT22;46780;48.128;-1.704;2022-09-03T15:43:35;23.50;46.70
60909;DHT22;46780;48.128;-1.704;2022-09-03T15:46:06;23.60;47.10
60909;DHT22;46780;48.128;-1.704;2022-09-03T15:48:43;23.50;46.90
60909;DHT22;46780;48.128;-1.704;2022-09-03T15:51:16;23.40;47.40
60909;DHT22;46780;48.128;-1.704;2022-09-03T15:53:49;23.40;48.00
60909;DHT22;46780;48.128;-1.704;2022-09-03T15:56:24;23.30;48.20